createdAt,value
2022-08-26T00:00:50.580Z,71.00
2022-08-26T00:03:19.773Z,71.30
2022-08-26T00:05:51.009Z,71.30
2022-08-26T00:08:22.064Z,71.20
2022-08-26T00:10:51.083Z,71.00
2022-08-26T00:13:19.691Z,70.80
2022-08-26T00:15:48.146Z,71.10
2022-08-26T00:18:22.203Z,71.00
2022-08-26T00:20:52.532Z,71.40
2022-08-26T00:23:20.871Z,71.20
2022-08-26T00:25:53.071Z,71.10
2022-08-26T00:28:22.285Z,71.10
2022-08-26T00:30:51.673Z,71.80
2022-08-26T00:33:22.133Z,71.20
2022-08-26T00:35:51.861Z,71.00
2022-08-26T00:38:22.204Z,71.30
2022-08-26T00:40:55.140Z,71.30
2022-08-26T00:43:24.333Z,71.50
2022-08-26T00:45:57.680Z,71.70
2022-08-26T00:48:31.881Z,71.70
2022-08-26T00:51:07.666Z,71.70
2022-08-26T00:53:42.699Z,71.60
2022-08-26T00:56:19.167Z,71.70
2022-08-26T00:58:48.181Z,71.50
2022-08-26T01:01:17.988Z,71.20
2022-08-26T01:03:47.550Z,71.50
2022-08-26T01:06:17.533Z,71.60
2022-08-26T01:08:45.803Z,71.60
2022-08-26T01:11:15.225Z,71.40
2022-08-26T01:13:45.361Z,71.30
2022-08-26T01:16:17.024Z,71.40
2022-08-26T01:18:46.881Z,71.10
2022-08-26T01:21:26.098Z,71.30
2022-08-26T01:23:57.851Z,71.30
2022-08-26T01:26:30.754Z,71.30
2022-08-26T01:29:06.086Z,71.30
2022-08-26T01:31:41.694Z,71.30
2022-08-26T01:34:16.939Z,71.50
2022-08-26T01:36:51.056Z,71.50
2022-08-26T01:39:21.888Z,71.40
2022-08-26T01:41:53.704Z,71.50
2022-08-26T01:44:27.298Z,71.30
2022-08-26T01:46:58.179Z,71.50
2022-08-26T01:49:28.922Z,72.20
2022-08-26T01:52:01.171Z,71.70
2022-08-26T01:54:31.155Z,71.50
2022-08-26T01:57:01.128Z,71.40
2022-08-26T01:59:31.325Z,71.50
2022-08-26T02:02:00.134Z,71.50
2022-08-26T02:04:35.074Z,71.50
2022-08-26T02:07:07.509Z,71.40
2022-08-26T02:09:41.423Z,71.50
2022-08-26T02:12:11.754Z,71.60
2022-08-26T02:14:50.116Z,71.50
2022-08-26T02:17:23.994Z,71.30
2022-08-26T02:19:52.713Z,71.50
2022-08-26T02:22:24.650Z,71.30
2022-08-26T02:24:57.410Z,71.20
2022-08-26T02:27:32.364Z,71.10
2022-08-26T02:30:09.549Z,71.10
2022-08-26T02:32:40.242Z,71.10
2022-08-26T02:35:11.329Z,71.10
2022-08-26T02:37:41.884Z,71.30
2022-08-26T02:40:15.667Z,71.40
2022-08-26T02:42:44.154Z,71.30
2022-08-26T02:45:13.231Z,71.40
2022-08-26T02:47:45.940Z,71.30
2022-08-26T02:50:15.424Z,71.30
2022-08-26T02:52:45.435Z,71.50
2022-08-26T02:55:16.323Z,71.40
2022-08-26T02:57:45.119Z,71.30
2022-08-26T03:00:15.915Z,71.40
2022-08-26T03:02:44.497Z,71.30
2022-08-26T03:05:13.395Z,71.20
2022-08-26T03:07:41.737Z,71.20
2022-08-26T03:10:12.564Z,71.20
2022-08-26T03:12:42.265Z,71.20
2022-08-26T03:15:15.600Z,71.20
2022-08-26T03:17:48.388Z,71.30
2022-08-26T03:20:19.639Z,71.90
2022-08-26T03:22:47.960Z,71.20
2022-08-26T03:25:18.758Z,71.10
2022-08-26T03:27:50.030Z,71.10
2022-08-26T03:30:36.786Z,71.00
2022-08-26T03:33:05.970Z,71.20
2022-08-26T03:35:35.178Z,71.00
2022-08-26T03:38:04.785Z,71.20
2022-08-26T03:40:34.735Z,71.30
2022-08-26T03:43:06.941Z,71.00
2022-08-26T03:45:40.898Z,70.90
2022-08-26T03:48:11.312Z,71.10
2022-08-26T03:50:40.501Z,70.80
2022-08-26T03:53:13.062Z,70.80
2022-08-26T03:55:43.343Z,71.50
2022-08-26T03:58:13.169Z,70.70
2022-08-26T04:00:41.745Z,70.70
2022-08-26T04:03:14.682Z,70.60
2022-08-26T04:05:46.593Z,70.70
2022-08-26T04:08:15.152Z,71.00
2022-08-26T04:10:43.826Z,70.90
2022-08-26T04:13:13.910Z,70.90
2022-08-26T04:15:44.412Z,70.90
2022-08-26T04:18:13.168Z,70.90
2022-08-26T04:20:41.508Z,71.00
2022-08-26T04:23:09.752Z,70.80
2022-08-26T04:25:38.050Z,70.80
2022-08-26T04:28:08.913Z,71.00
2022-08-26T04:30:40.433Z,71.10
2022-08-26T04:33:14.003Z,70.80
2022-08-26T04:35:44.248Z,70.80
2022-08-26T04:38:13.208Z,70.80
2022-08-26T04:40:46.667Z,70.90
2022-08-26T04:43:15.545Z,71.00
2022-08-26T04:45:45.579Z,71.00
2022-08-26T04:48:16.754Z,70.90
2022-08-26T04:50:46.878Z,70.90
2022-08-26T04:53:18.033Z,70.90
2022-08-26T04:55:46.764Z,70.80
2022-08-26T04:58:18.202Z,70.90
2022-08-26T05:00:49.126Z,71.00
2022-08-26T05:03:18.998Z,71.10
2022-08-26T05:05:51.275Z,71.10
2022-08-26T05:08:22.396Z,71.10
2022-08-26T05:10:56.345Z,70.90
2022-08-26T05:13:27.949Z,70.70
2022-08-26T05:16:00.024Z,70.70
2022-08-26T05:18:29.983Z,70.60
2022-08-26T05:20:58.705Z,71.30
2022-08-26T05:23:27.214Z,72.50
2022-08-26T05:25:59.330Z,72.50
2022-08-26T05:28:30.873Z,71.90
2022-08-26T05:31:00.806Z,72.90
2022-08-26T05:33:29.635Z,72.30
2022-08-26T05:35:57.953Z,72.00
2022-08-26T05:38:26.845Z,72.20
2022-08-26T05:40:58.944Z,72.20
2022-08-26T05:43:28.033Z,72.10
2022-08-26T05:45:57.469Z,72.80
2022-08-26T05:48:27.119Z,72.20
2022-08-26T05:50:55.606Z,71.80
2022-08-26T05:53:26.057Z,71.70
2022-08-26T05:55:56.711Z,71.50
2022-08-26T05:58:27.936Z,71.50
2022-08-26T06:01:02.764Z,71.90
2022-08-26T06:03:35.661Z,71.90
2022-08-26T06:06:06.825Z,72.10
2022-08-26T06:08:38.035Z,72.40
2022-08-26T06:11:12.720Z,72.20
2022-08-26T06:13:47.881Z,71.70
2022-08-26T06:16:19.686Z,71.40
2022-08-26T06:18:50.983Z,71.80
2022-08-26T06:21:22.447Z,71.50
2022-08-26T06:24:10.653Z,71.60
2022-08-26T06:26:40.136Z,71.60
2022-08-26T06:29:11.537Z,71.40
2022-08-26T06:31:53.120Z,71.30
2022-08-26T06:34:23.062Z,71.40
2022-08-26T06:36:55.337Z,71.60
2022-08-26T06:39:23.582Z,71.40
2022-08-26T06:41:52.629Z,71.40
2022-08-26T06:44:21.203Z,71.30
2022-08-26T06:46:50.576Z,71.40
2022-08-26T06:49:26.828Z,71.40
2022-08-26T06:51:58.904Z,72.20
2022-08-26T06:54:27.764Z,72.60
2022-08-26T06:56:56.874Z,72.00
2022-08-26T06:59:26.289Z,71.70
2022-08-26T07:01:55.214Z,72.00
2022-08-26T07:04:24.968Z,71.90
2022-08-26T07:06:58.157Z,72.00
2022-08-26T07:09:30.645Z,71.80
2022-08-26T07:11:59.060Z,71.70
2022-08-26T07:14:27.746Z,71.60
2022-08-26T07:16:56.756Z,71.60
2022-08-26T07:19:28.525Z,71.40
2022-08-26T07:22:02.048Z,71.60
2022-08-26T07:24:31.096Z,71.50
2022-08-26T07:27:02.837Z,71.30
2022-08-26T07:29:32.359Z,71.10
2022-08-26T07:32:00.861Z,71.10
2022-08-26T07:34:31.415Z,71.00
2022-08-26T07:37:01.945Z,71.10
2022-08-26T07:39:33.345Z,71.10
2022-08-26T07:42:07.777Z,71.50
2022-08-26T07:44:37.874Z,71.60
2022-08-26T07:47:10.540Z,71.60
2022-08-26T07:49:55.557Z,71.50
2022-08-26T07:52:27.337Z,71.70
2022-08-26T07:54:56.974Z,71.50
2022-08-26T07:57:26.417Z,71.20
2022-08-26T07:59:56.148Z,71.10
2022-08-26T08:02:27.057Z,71.20
2022-08-26T08:04:56.809Z,71.10
2022-08-26T08:07:44.190Z,72.20
2022-08-26T08:10:18.624Z,71.90
2022-08-26T08:12:47.406Z,71.60
2022-08-26T08:15:17.215Z,71.60
2022-08-26T08:17:45.423Z,71.60
2022-08-26T08:20:15.795Z,71.30
2022-08-26T08:22:45.834Z,71.20
2022-08-26T08:25:15.885Z,71.10
2022-08-26T08:27:46.388Z,71.10
2022-08-26T08:30:22.810Z,71.10
2022-08-26T08:32:52.521Z,71.10
2022-08-26T08:35:23.037Z,71.10
2022-08-26T08:37:54.795Z,71.10
2022-08-26T08:40:27.101Z,71.10
2022-08-26T08:43:03.301Z,71.10
2022-08-26T08:45:39.088Z,71.00
2022-08-26T08:48:14.637Z,71.10
2022-08-26T08:50:46.476Z,71.10
2022-08-26T08:53:22.711Z,71.00
2022-08-26T08:56:01.965Z,71.00
2022-08-26T08:58:47.097Z,71.00
2022-08-26T09:01:39.448Z,71.70
2022-08-26T09:05:06.491Z,70.90
2022-08-26T09:07:41.597Z,70.80
2022-08-26T09:10:33.427Z,71.10
2022-08-26T09:13:08.072Z,71.20
2022-08-26T09:15:49.517Z,71.70
2022-08-26T09:18:30.964Z,71.40
2022-08-26T09:21:04.296Z,71.30
2022-08-26T09:23:36.353Z,71.40
2022-08-26T09:26:18.382Z,71.50
2022-08-26T09:28:50.487Z,71.70
2022-08-26T09:31:26.998Z,71.60
2022-08-26T09:34:17.535Z,71.80
2022-08-26T09:36:49.590Z,71.70
2022-08-26T09:39:32.009Z,71.60
2022-08-26T09:42:09.775Z,71.50
2022-08-26T09:44:57.670Z,71.50
2022-08-26T09:47:31.773Z,71.50
2022-08-26T09:50:09.588Z,71.60
2022-08-26T09:52:40.480Z,71.40
2022-08-26T09:55:16.425Z,72.00
2022-08-26T09:57:52.418Z,71.50
2022-08-26T10:00:33.427Z,71.40
2022-08-26T10:03:05.971Z,71.40
2022-08-26T10:05:42.592Z,71.20
2022-08-26T10:08:25.805Z,71.20
2022-08-26T10:10:56.223Z,71.10
2022-08-26T10:13:34.484Z,71.10
2022-08-26T10:16:15.866Z,71.10
2022-08-26T10:18:51.310Z,71.10
2022-08-26T10:21:28.271Z,71.30
2022-08-26T10:24:00.481Z,71.40
2022-08-26T10:26:40.527Z,71.50
2022-08-26T10:29:19.899Z,71.60
2022-08-26T10:31:58.811Z,71.70
2022-08-26T10:34:33.754Z,71.70
2022-08-26T10:37:14.725Z,72.30
2022-08-26T10:39:58.597Z,71.50
2022-08-26T10:42:35.264Z,71.40
2022-08-26T10:45:14.997Z,71.40
2022-08-26T10:47:51.499Z,71.40
2022-08-26T10:50:23.875Z,71.40
2022-08-26T10:53:01.266Z,71.40
2022-08-26T10:55:38.471Z,71.40
2022-08-26T10:58:37.811Z,71.30
2022-08-26T11:01:36.025Z,71.40
2022-08-26T11:04:25.013Z,71.30
2022-08-26T11:07:30.258Z,71.30
2022-08-26T11:10:03.001Z,71.20
2022-08-26T11:12:53.384Z,71.10
2022-08-26T11:16:10.689Z,71.10
2022-08-26T11:18:51.252Z,71.00
2022-08-26T11:22:05.972Z,71.00
2022-08-26T11:25:00.186Z,70.90
2022-08-26T11:27:59.605Z,70.90
2022-08-26T11:30:56.983Z,71.00
2022-08-26T11:33:59.621Z,70.80
2022-08-26T11:36:57.272Z,70.90
2022-08-26T11:39:36.705Z,70.90
2022-08-26T11:42:23.922Z,70.90
2022-08-26T11:44:58.160Z,71.50
2022-08-26T11:47:30.939Z,71.70
2022-08-26T11:50:15.231Z,71.60
2022-08-26T11:52:59.112Z,71.40
2022-08-26T11:55:27.556Z,71.70
2022-08-26T11:58:00.806Z,71.70
2022-08-26T12:00:34.549Z,71.60
2022-08-26T12:03:09.004Z,71.70
2022-08-26T12:05:46.032Z,71.60
2022-08-26T12:08:21.513Z,71.60
2022-08-26T12:10:50.618Z,71.60
2022-08-26T12:13:26.432Z,71.50
2022-08-26T12:15:57.756Z,71.70
2022-08-26T12:18:31.021Z,71.90
2022-08-26T12:21:16.090Z,71.80
2022-08-26T12:23:50.077Z,71.70
2022-08-26T12:26:27.697Z,71.80
2022-08-26T12:29:00.426Z,71.80
2022-08-26T12:31:33.774Z,71.80
2022-08-26T12:34:07.299Z,71.80
2022-08-26T12:36:50.885Z,71.80
2022-08-26T12:39:28.793Z,71.80
2022-08-26T12:41:59.287Z,72.10
2022-08-26T12:44:53.793Z,72.10
2022-08-26T12:47:35.161Z,72.00
2022-08-26T12:50:18.528Z,72.10
2022-08-26T12:53:00.163Z,72.40
2022-08-26T12:55:40.255Z,72.10
2022-08-26T12:58:28.894Z,72.00
2022-08-26T13:01:00.052Z,72.30
2022-08-26T13:03:46.482Z,72.50
2022-08-26T13:06:29.850Z,72.50
2022-08-26T13:09:02.001Z,72.60
2022-08-26T13:11:33.020Z,72.50
2022-08-26T13:14:06.947Z,72.90
2022-08-26T13:16:36.743Z,73.10
2022-08-26T13:19:10.271Z,72.70
2022-08-26T13:21:47.734Z,73.10
2022-08-26T13:24:21.694Z,73.10
2022-08-26T13:26:51.298Z,73.10
2022-08-26T13:29:20.670Z,73.10
2022-08-26T13:31:49.335Z,73.00
2022-08-26T13:34:21.220Z,72.80
2022-08-26T13:36:51.502Z,72.70
2022-08-26T13:39:21.863Z,73.10
2022-08-26T13:41:50.883Z,73.20
2022-08-26T13:44:19.883Z,72.90
2022-08-26T13:46:48.528Z,73.00
2022-08-26T13:49:16.867Z,73.10
2022-08-26T13:51:45.324Z,73.10
2022-08-26T13:54:13.882Z,72.40
2022-08-26T13:56:43.979Z,72.40
2022-08-26T13:59:12.259Z,72.40
2022-08-26T14:01:40.791Z,72.40
2022-08-26T14:04:09.677Z,72.50
2022-08-26T14:06:37.982Z,73.70
2022-08-26T14:09:06.650Z,74.30
2022-08-26T14:11:54.461Z,74.30
2022-08-26T14:14:25.123Z,74.30
2022-08-26T14:16:59.415Z,74.10
2022-08-26T14:19:31.144Z,74.20
2022-08-26T14:22:01.425Z,74.10
2022-08-26T14:24:30.803Z,74.70
2022-08-26T14:26:59.722Z,73.90
2022-08-26T14:29:31.203Z,73.80
2022-08-26T14:32:03.170Z,73.90
2022-08-26T14:34:31.651Z,73.80
2022-08-26T14:37:07.362Z,73.80
2022-08-26T14:39:37.357Z,73.70
2022-08-26T14:42:06.972Z,73.80
2022-08-26T14:44:37.200Z,73.80
2022-08-26T14:47:07.575Z,73.60
2022-08-26T14:49:36.336Z,73.70
2022-08-26T14:52:05.192Z,73.40
2022-08-26T14:54:33.779Z,72.40
2022-08-26T14:57:05.832Z,72.80
2022-08-26T14:59:38.676Z,72.80
2022-08-26T15:02:10.543Z,73.00
2022-08-26T15:04:42.869Z,72.60
2022-08-26T15:07:12.692Z,73.00
2022-08-26T15:09:41.247Z,73.10
2022-08-26T15:12:09.944Z,73.30
2022-08-26T15:14:39.887Z,73.30
2022-08-26T15:17:08.198Z,73.50
2022-08-26T15:19:36.537Z,73.70
2022-08-26T15:22:04.920Z,74.00
2022-08-26T15:24:33.275Z,73.40
2022-08-26T15:27:01.764Z,73.20
2022-08-26T15:29:30.103Z,73.60
2022-08-26T15:32:01.519Z,73.50
2022-08-26T15:34:29.925Z,73.50
2022-08-26T15:36:58.478Z,73.40
2022-08-26T15:39:27.264Z,73.40
2022-08-26T15:41:56.429Z,73.10
2022-08-26T15:44:26.426Z,73.00
2022-08-26T15:46:58.671Z,73.20
2022-08-26T15:49:28.940Z,72.90
2022-08-26T15:51:57.234Z,72.60
2022-08-26T15:54:25.975Z,72.80
2022-08-26T15:56:54.291Z,73.00
2022-08-26T15:59:23.642Z,73.30
2022-08-26T16:01:52.647Z,73.20
2022-08-26T16:04:21.994Z,73.10
2022-08-26T16:06:52.664Z,73.10
2022-08-26T16:09:24.211Z,73.00
2022-08-26T16:11:53.102Z,72.70
2022-08-26T16:14:21.576Z,72.60
2022-08-26T16:16:50.518Z,72.50
2022-08-26T16:19:19.260Z,72.40
2022-08-26T16:21:48.051Z,73.50
2022-08-26T16:24:21.419Z,74.40
2022-08-26T16:26:50.160Z,73.60
2022-08-26T16:29:19.383Z,73.40
2022-08-26T16:31:50.638Z,73.50
2022-08-26T16:34:18.870Z,74.00
2022-08-26T16:36:47.483Z,74.00
2022-08-26T16:39:17.475Z,74.60
2022-08-26T16:41:45.863Z,74.90
2022-08-26T16:44:14.443Z,74.90
2022-08-26T16:46:42.806Z,74.70
2022-08-26T16:49:14.615Z,74.40
2022-08-26T16:51:42.905Z,74.50
2022-08-26T16:54:11.152Z,74.40
2022-08-26T16:56:40.966Z,74.50
2022-08-26T16:59:11.769Z,74.60
2022-08-26T17:01:40.334Z,74.60
2022-08-26T17:04:08.961Z,74.80
2022-08-26T17:06:38.200Z,74.70
2022-08-26T17:09:06.923Z,74.90
2022-08-26T17:11:35.591Z,75.50
2022-08-26T17:14:05.850Z,75.00
2022-08-26T17:16:34.154Z,74.70
2022-08-26T17:19:04.486Z,74.70
2022-08-26T17:21:34.657Z,74.60
2022-08-26T17:24:04.158Z,74.50
2022-08-26T17:26:33.289Z,74.40
2022-08-26T17:29:01.519Z,74.20
2022-08-26T17:31:31.936Z,74.40
2022-08-26T17:34:00.603Z,74.50
2022-08-26T17:36:29.340Z,75.20
2022-08-26T17:38:58.956Z,74.50
2022-08-26T17:41:27.890Z,74.30
2022-08-26T17:43:56.371Z,74.30
2022-08-26T17:46:25.478Z,74.10
2022-08-26T17:48:55.716Z,74.20
2022-08-26T17:51:24.540Z,74.20
2022-08-26T17:53:53.550Z,74.10
2022-08-26T17:56:26.488Z,74.10
2022-08-26T17:58:57.510Z,74.30
2022-08-26T18:01:30.980Z,74.50
2022-08-26T18:04:01.269Z,74.60
2022-08-26T18:06:30.348Z,74.80
2022-08-26T18:08:58.898Z,74.50
2022-08-26T18:11:28.348Z,74.60
2022-08-26T18:13:56.809Z,74.70
2022-08-26T18:16:25.368Z,74.60
2022-08-26T18:18:54.665Z,74.60
2022-08-26T18:21:28.035Z,74.70
2022-08-26T18:23:56.977Z,75.00
2022-08-26T18:26:29.718Z,75.00
2022-08-26T18:28:59.069Z,75.30
2022-08-26T18:31:27.895Z,75.70
2022-08-26T18:33:56.864Z,75.70
2022-08-26T18:36:29.993Z,78.20
2022-08-26T18:38:59.148Z,78.50
2022-08-26T18:41:30.361Z,77.80
2022-08-26T18:44:00.297Z,79.40
2022-08-26T18:46:29.577Z,77.10
2022-08-26T18:48:59.529Z,78.80
2022-08-26T18:51:33.001Z,77.30
2022-08-26T18:54:04.427Z,77.40
2022-08-26T18:56:33.884Z,77.20
2022-08-26T18:59:02.753Z,76.40
2022-08-26T19:01:32.352Z,76.30
2022-08-26T19:04:03.113Z,76.20
2022-08-26T19:06:35.581Z,76.20
2022-08-26T19:09:06.569Z,76.10
2022-08-26T19:11:38.360Z,75.40
2022-08-26T19:14:14.121Z,75.00
2022-08-26T19:16:43.894Z,76.00
2022-08-26T19:19:12.462Z,75.20
2022-08-26T19:21:42.621Z,75.30
2022-08-26T19:24:17.483Z,75.50
2022-08-26T19:26:48.596Z,75.50
2022-08-26T19:29:19.048Z,75.60
2022-08-26T19:31:47.941Z,76.00
2022-08-26T19:34:17.484Z,76.30
2022-08-26T19:36:53.174Z,76.00
2022-08-26T19:39:21.762Z,75.90
2022-08-26T19:41:50.507Z,76.70
2022-08-26T19:44:35.865Z,76.10
2022-08-26T19:47:05.991Z,76.30
2022-08-26T19:49:34.861Z,76.60
2022-08-26T19:52:06.004Z,84.80
2022-08-26T19:54:35.324Z,89.40
2022-08-26T19:57:03.901Z,91.50
2022-08-26T19:59:33.047Z,91.30
2022-08-26T20:02:02.274Z,92.40
2022-08-26T20:04:32.226Z,93.20
2022-08-26T20:07:01.746Z,92.10
2022-08-26T20:09:33.976Z,94.10
2022-08-26T20:12:03.947Z,93.70
2022-08-26T20:14:33.443Z,93.50
2022-08-26T20:17:02.154Z,92.60
2022-08-26T20:19:48.197Z,92.30
2022-08-26T20:22:17.498Z,92.20
2022-08-26T20:24:47.769Z,87.70
2022-08-26T20:27:16.535Z,86.50
2022-08-26T20:29:44.882Z,84.60
2022-08-26T20:32:13.281Z,87.20
2022-08-26T20:34:41.748Z,86.50
2022-08-26T20:37:10.448Z,84.20
2022-08-26T20:39:38.959Z,85.50
2022-08-26T20:42:19.902Z,84.80
2022-08-26T20:44:54.454Z,83.80
2022-08-26T20:47:23.804Z,83.50
2022-08-26T20:49:52.681Z,82.60
2022-08-26T20:52:21.567Z,80.00
2022-08-26T20:54:49.933Z,80.60
2022-08-26T20:57:19.891Z,81.80
2022-08-26T20:59:48.288Z,78.70
2022-08-26T21:02:16.883Z,76.10
2022-08-26T21:04:45.195Z,76.80
2022-08-26T21:07:13.617Z,78.80
2022-08-26T21:09:41.940Z,79.00
2022-08-26T21:12:10.605Z,80.00
2022-08-26T21:14:40.619Z,78.80
2022-08-26T21:17:09.118Z,78.10
2022-08-26T21:19:37.659Z,79.20
2022-08-26T21:22:06.360Z,77.40
2022-08-26T21:24:35.925Z,77.00
2022-08-26T21:27:04.447Z,78.50
2022-08-26T21:29:32.745Z,74.60
2022-08-26T21:32:02.524Z,75.00
2022-08-26T21:34:30.862Z,72.70
2022-08-26T21:36:59.604Z,73.00
2022-08-26T21:39:28.250Z,77.50
2022-08-26T21:41:57.838Z,77.20
2022-08-26T21:44:27.458Z,77.30
2022-08-26T21:46:56.666Z,76.10
2022-08-26T21:49:27.399Z,76.70
2022-08-26T21:51:56.240Z,75.00
2022-08-26T21:54:24.662Z,73.80
2022-08-26T21:56:55.100Z,74.00
2022-08-26T21:59:23.542Z,73.80
2022-08-26T22:01:52.331Z,73.80
2022-08-26T22:04:20.862Z,74.40
2022-08-26T22:06:54.533Z,73.60
2022-08-26T22:09:27.772Z,74.00
2022-08-26T22:11:57.549Z,73.50
2022-08-26T22:14:30.435Z,74.30
2022-08-26T22:17:00.558Z,74.10
2022-08-26T22:19:29.414Z,73.20
2022-08-26T22:22:00.847Z,73.30
2022-08-26T22:24:29.369Z,72.50
2022-08-26T22:26:57.830Z,73.00
2022-08-26T22:29:27.091Z,73.20
2022-08-26T22:31:55.631Z,73.50
2022-08-26T22:34:24.024Z,73.00
2022-08-26T22:36:54.094Z,73.30
2022-08-26T22:39:26.896Z,73.50
2022-08-26T22:41:57.163Z,73.10
2022-08-26T22:44:25.724Z,73.90
2022-08-26T22:46:55.524Z,73.50
2022-08-26T22:49:24.967Z,73.40
2022-08-26T22:51:53.525Z,73.90
2022-08-26T22:54:23.466Z,72.80
2022-08-26T22:56:52.012Z,73.40
2022-08-26T22:59:20.661Z,73.70
2022-08-26T23:01:52.706Z,73.70
2022-08-26T23:04:22.023Z,74.10
2022-08-26T23:06:50.883Z,74.20
2022-08-26T23:09:20.131Z,74.00
2022-08-26T23:11:51.480Z,73.70
2022-08-26T23:14:20.448Z,74.10
2022-08-26T23:16:49.623Z,74.30
2022-08-26T23:19:21.599Z,73.80
2022-08-26T23:21:50.603Z,73.80
2022-08-26T23:24:19.688Z,74.10
2022-08-26T23:26:48.699Z,74.80
2022-08-26T23:29:18.468Z,74.10
2022-08-26T23:31:47.006Z,74.20
2022-08-26T23:34:33.026Z,74.50
2022-08-26T23:37:01.730Z,74.00
2022-08-26T23:39:32.088Z,74.10
2022-08-26T23:42:01.736Z,74.50
2022-08-26T23:44:33.891Z,74.20
2022-08-26T23:47:03.289Z,74.40
2022-08-26T23:49:32.586Z,74.40
2022-08-26T23:52:18.925Z,74.10
2022-08-26T23:54:48.634Z,74.10
2022-08-26T23:57:18.438Z,74.10
2022-08-26T23:59:48.985Z,74.20
